Time;durP1;ratioP1;P1;durP2;ratioP2;P2;SDS_P1;SDS_P2;PMS_P1;PMS_P2;Temp;Humidity;BMP_temperature;BMP_pressure;BME280_temperature;BME280_humidity;BME280_pressure;Samples;Min_cycle;Max_cycle;Signal;HPM_P1;HPM_P2
2022/11/25 00:02:04;;;;;;;25.05;3.65;;;;;;;21.32;65.19;99388.84;7308801;19;129236;-38
2022/11/25 00:04:35;;;;;;;29.10;3.95;;;;;;;21.33;63.72;99390.50;7309859;19;129021;-38
2022/11/25 00:07:01;;;;;;;25.00;3.67;;;;;;;21.35;64.34;99391.19;7310995;19;130819;-38
2022/11/25 00:09:27;;;;;;;20.38;3.78;;;;;;;21.33;64.54;99392.28;7310232;19;129563;-38
2022/11/25 00:11:52;;;;;;;16.47;3.23;;;;;;;21.33;65.14;99390.50;7309117;19;129224;-37
2022/11/25 00:14:17;;;;;;;33.97;4.32;;;;;;;21.36;65.29;99398.06;7309757;19;128930;-37
2022/11/25 00:16:43;;;;;;;22.30;3.33;;;;;;;21.34;64.85;99392.16;7310913;19;129571;-37
2022/11/25 00:19:08;;;;;;;26.42;3.70;;;;;;;21.36;64.55;99392.00;7315133;19;130201;-35
2022/11/25 00:21:34;;;;;;;43.92;5.00;;;;;;;21.36;64.01;99390.22;7316762;19;129206;-34
2022/11/25 00:24:02;;;;;;;44.77;4.80;;;;;;;21.36;65.49;99395.44;7316758;19;129250;-38
2022/11/25 00:26:31;;;;;;;33.78;4.38;;;;;;;21.22;63.79;99371.56;7317785;19;129196;-36
2022/11/25 00:28:58;;;;;;;26.08;3.65;;;;;;;21.21;64.02;99391.63;7317048;19;131379;-35
2022/11/25 00:31:26;;;;;;;27.10;3.97;;;;;;;21.14;63.77;99395.78;7316199;19;129586;-38
2022/11/25 00:33:52;;;;;;;53.75;6.00;;;;;;;21.21;63.34;99391.63;7317457;19;129300;-38
2022/11/25 00:36:38;;;;;;;25.53;3.57;;;;;;;21.30;62.90;99385.56;7317772;19;129351;-35
2022/11/25 00:39:06;;;;;;;27.35;3.83;;;;;;;21.43;62.39;99396.53;7317631;19;130564;-37
2022/11/25 00:44:39;;;;;;;25.52;3.42;;;;;;;21.59;61.72;99381.03;7314390;19;128935;-38
2022/11/25 00:47:10;;;;;;;20.70;3.00;;;;;;;21.80;61.51;99397.34;7316717;19;130283;-37
2022/11/25 00:49:37;;;;;;;11.88;2.90;;;;;;;21.86;60.81;99383.69;7316850;19;129970;-35
2022/11/25 00:52:03;;;;;;;35.42;4.95;;;;;;;21.92;60.76;99393.56;7314830;19;128906;-37
2022/11/25 00:54:29;;;;;;;28.43;3.60;;;;;;;21.97;60.89;99398.34;7316017;19;129037;-36
2022/11/25 00:56:54;;;;;;;41.10;4.70;;;;;;;21.96;60.74;99400.13;7316658;19;129639;-38
2022/11/25 00:59:20;;;;;;;22.58;3.63;;;;;;;21.90;60.71;99395.50;7317372;19;130206;-38
2022/11/25 01:01:46;;;;;;;35.72;4.28;;;;;;;21.83;61.21;99383.97;7316058;19;130581;-37
2022/11/25 01:04:11;;;;;;;30.60;4.05;;;;;;;21.82;61.25;99398.03;7316630;19;128846;-35
2022/11/25 01:06:36;;;;;;;20.60;3.10;;;;;;;21.74;61.53;99397.91;7316323;19;129513;-38
2022/11/25 01:09:03;;;;;;;29.17;4.10;;;;;;;21.63;61.01;99382.41;7315870;19;129101;-36
2022/11/25 01:11:29;;;;;;;;;;;;;;;21.60;61.73;99393.13;7316881;19;129260;-36
2022/11/25 01:13:55;;;;;;;45.10;4.95;;;;;;;21.49;61.78;99388.09;7316176;19;128751;-37
2022/11/25 01:16:21;;;;;;;33.27;3.80;;;;;;;21.52;62.73;99400.88;7316601;19;130377;-38
2022/11/25 01:18:47;;;;;;;32.40;4.20;;;;;;;21.46;62.01;99395.41;7315956;19;129197;-37
2022/11/25 01:21:18;;;;;;;42.40;4.47;;;;;;;21.41;62.72;99398.47;7315583;19;128906;-36
2022/11/25 01:23:44;;;;;;;25.95;3.50;;;;;;;21.36;62.41;99394.63;7316414;19;129048;-38
2022/11/25 01:26:13;;;;;;;21.80;2.97;;;;;;;21.22;62.88;99382.81;7315994;19;128986;-34
2022/11/25 01:28:39;;;;;;;18.67;3.05;;;;;;;21.26;63.30;99397.25;7314557;19;129642;-37
2022/11/25 01:31:14;;;;;;;47.03;5.10;;;;;;;21.23;62.79;99399.34;7315893;19;130247;-38
2022/11/25 01:33:40;;;;;;;27.25;3.65;;;;;;;21.13;63.40;99394.13;7315679;19;128914;-36
2022/11/25 01:36:09;;;;;;;21.92;3.40;;;;;;;21.17;63.70;99402.53;7312599;19;129493;-37
2022/11/25 01:38:35;;;;;;;25.67;3.50;;;;;;;21.14;63.82;99395.78;7315546;19;129726;-37
2022/11/25 01:41:02;;;;;;;24.52;3.35;;;;;;;21.05;63.52;99386.19;7315439;19;129491;-38
2022/11/25 01:43:28;;;;;;;35.95;3.97;;;;;;;20.99;63.70;99376.28;7312158;19;129539;-37
2022/11/25 01:46:06;;;;;;;28.35;3.33;;;;;;;21.04;63.93;99389.75;7313823;19;129325;-36
2022/11/25 01:48:48;;;;;;;20.75;3.13;;;;;;;21.01;64.10;99379.56;7314945;19;130426;-39
2022/11/25 01:51:32;;;;;;;26.27;3.10;;;;;;;21.02;64.01;99385.63;7315006;19;129498;-37
2022/11/25 01:54:02;;;;;;;51.78;5.60;;;;;;;21.04;64.05;99389.75;7312891;19;129460;-37
2022/11/25 01:56:32;;;;;;;20.65;3.08;;;;;;;21.01;64.51;99386.59;7314932;19;129711;-37
2022/11/25 01:58:58;;;;;;;32.63;3.58;;;;;;;20.88;64.29;99368.56;7314081;19;129483;-37
2022/11/25 02:01:23;;;;;;;22.23;3.07;;;;;;;21.00;64.63;99385.78;7314768;19;129529;-38
2022/11/25 02:03:53;;;;;;;50.57;5.23;;;;;;;21.00;64.51;99383.16;7313454;19;130143;-36
2022/11/25 02:06:33;;;;;;;18.10;2.80;;;;;;;20.98;64.82;99387.72;7314246;19;130010;-38
2022/11/25 02:09:04;;;;;;;30.70;3.65;;;;;;;21.04;65.35;99388.94;7314881;19;129672;-36
2022/11/25 02:11:32;;;;;;;43.00;4.35;;;;;;;21.02;65.03;99386.47;7313701;19;130585;-37
2022/11/25 02:13:59;;;;;;;30.98;4.35;;;;;;;21.05;65.32;99385.34;7314366;19;129144;-39
2022/11/25 02:16:24;;;;;;;23.35;2.83;;;;;;;21.06;65.07;99387.00;7314684;19;130001;-38
2022/11/25 02:18:50;;;;;;;30.48;3.42;;;;;;;21.06;65.55;99384.38;7314355;19;130183;-38
2022/11/25 02:21:28;;;;;;;54.70;5.10;;;;;;;21.08;65.51;99385.06;7312492;19;129334;-38
2022/11/25 02:24:10;;;;;;;57.67;5.50;;;;;;;21.07;66.39;99389.50;7312635;19;129307;-38
2022/11/25 02:26:36;;;;;;;46.40;4.82;;;;;;;21.09;65.24;99386.72;7311850;19;131368;-37
2022/11/25 02:29:01;;;;;;;32.20;3.35;;;;;;;21.05;66.19;99380.97;7314169;19;130137;-39
2022/11/25 02:31:27;;;;;;;27.70;3.37;;;;;;;21.09;65.32;99384.91;7312842;19;129999;-37
2022/11/25 02:33:52;;;;;;;60.22;5.82;;;;;;;21.05;65.00;99380.13;7313081;19;130884;-38
2022/11/25 02:36:20;;;;;;;23.95;2.95;;;;;;;21.09;65.74;99381.50;7311105;19;129060;-36
2022/11/25 02:38:59;;;;;;;23.17;3.00;;;;;;;21.07;65.66;99379.03;7314580;19;129303;-37
2022/11/25 02:41:32;;;;;;;26.80;3.13;;;;;;;21.03;64.66;99376.81;7309426;19;129536;-38
2022/11/25 02:43:58;;;;;;;49.85;5.35;;;;;;;21.00;64.33;99372.72;7311981;19;129161;-37
2022/11/25 02:46:25;;;;;;;36.10;3.80;;;;;;;21.07;63.79;99380.81;7310506;19;132512;-37
2022/11/25 02:48:54;;;;;;;7.65;1.98;;;;;;;21.14;64.14;99379.28;7313462;19;131444;-38
2022/11/25 02:51:22;;;;;;;18.48;2.70;;;;;;;21.26;63.46;99378.97;7313207;19;129361;-38
2022/11/25 02:53:48;;;;;;;37.72;4.13;;;;;;;21.40;63.05;99381.09;7313164;19;129407;-36
2022/11/25 02:56:14;;;;;;;31.47;3.57;;;;;;;21.42;62.26;99363.47;7310231;19;130071;-36
2022/11/25 02:58:41;;;;;;;39.45;4.15;;;;;;;21.55;62.23;99379.66;7313133;19;129825;-34
2022/11/25 03:01:07;;;;;;;22.92;3.03;;;;;;;21.85;61.56;99384.66;7312192;19;129196;-38
2022/11/25 03:03:32;;;;;;;36.77;3.97;;;;;;;21.88;60.99;99375.69;7313217;19;129696;-38
2022/11/25 03:05:57;;;;;;;40.65;4.28;;;;;;;21.94;60.88;99386.41;7312019;19;130070;-37
2022/11/25 03:08:23;;;;;;;26.52;3.17;;;;;;;21.94;61.04;99391.63;7314326;19;129354;-38
2022/11/25 03:10:48;;;;;;;17.33;2.53;;;;;;;21.94;60.78;99386.41;7312474;19;129142;-37
2022/11/25 03:13:14;;;;;;;27.07;3.23;;;;;;;21.92;60.97;99393.56;7310660;19;130344;-36
2022/11/25 03:15:39;;;;;;;37.28;3.70;;;;;;;21.81;61.25;99396.41;7309954;19;130767;-37
2022/11/25 03:18:06;;;;;;;25.10;3.23;;;;;;;21.76;61.44;99392.53;7312624;19;130355;-38
2022/11/25 03:20:32;;;;;;;21.30;2.83;;;;;;;21.72;61.39;99394.59;7311632;19;129406;-36
2022/11/25 03:22:57;;;;;;;18.73;2.80;;;;;;;21.67;61.56;99388.16;7310565;19;129227;-37
2022/11/25 03:25:23;;;;;;;37.20;3.53;;;;;;;21.60;62.40;99395.75;7311487;19;130190;-38
2022/11/25 03:27:48;;;;;;;32.90;3.40;;;;;;;21.53;62.04;99397.31;7312568;19;129456;-38
2022/11/25 03:30:18;;;;;;;21.67;2.65;;;;;;;21.47;62.60;99391.84;7311830;19;129700;-38
2022/11/25 03:32:43;;;;;;;20.55;2.80;;;;;;;21.39;62.79;99397.78;7310049;19;129108;-38
2022/11/25 03:35:10;;;;;;;36.92;3.63;;;;;;;21.38;62.75;99393.53;7309801;19;129957;-38
2022/11/25 03:37:36;;;;;;;7.30;1.88;;;;;;;21.41;62.45;99393.22;7311817;19;130962;-38
2022/11/25 03:40:02;;;;;;;26.87;3.37;;;;;;;21.53;62.17;99392.09;7311549;19;129570;-38
2022/11/25 03:42:27;;;;;;;27.27;3.25;;;;;;;21.74;61.82;99395.28;7309758;19;129005;-37
2022/11/25 03:44:53;;;;;;;41.93;3.83;;;;;;;22.07;60.58;99398.28;7310351;19;130788;-37
2022/11/25 03:47:18;;;;;;;18.85;2.20;;;;;;;22.22;60.56;99404.69;7311712;19;130683;-36
2022/11/25 03:49:44;;;;;;;37.78;4.18;;;;;;;22.49;59.56;99402.00;7309403;19;130408;-37
2022/11/25 03:52:09;;;;;;;26.00;2.90;;;;;;;22.65;59.03;99402.16;7312636;19;129598;-37
2022/11/25 03:54:34;;;;;;;39.28;3.88;;;;;;;22.77;58.82;99400.97;7316622;19;129721;-38
2022/11/25 03:57:00;;;;;;;14.98;2.35;;;;;;;22.89;58.18;99405.00;7317681;19;129698;-37
2022/11/25 03:59:25;;;;;;;27.02;3.13;;;;;;;22.93;57.86;99407.16;7318082;19;129013;-37
2022/11/25 04:01:50;;;;;;;40.80;3.67;;;;;;;23.08;57.53;99407.44;7317650;19;129141;-37
2022/11/25 04:04:16;;;;;;;50.80;4.50;;;;;;;23.07;57.26;99408.41;7317975;19;129039;-35
2022/11/25 04:06:41;;;;;;;20.60;2.80;;;;;;;23.14;57.35;99409.41;7318267;19;129623;-38
2022/11/25 04:09:08;;;;;;;23.10;2.63;;;;;;;23.07;57.31;99403.97;7318484;19;129230;-38
2022/11/25 04:14:17;;;;;;;33.75;3.35;;;;;;;23.01;57.79;99415.09;7318559;19;128826;-36
2022/11/25 04:16:43;;;;;;;29.45;2.92;;;;;;;22.87;58.56;99415.63;7317693;19;130360;-37
2022/11/25 04:19:08;;;;;;;21.90;2.58;;;;;;;22.83;58.38;99410.84;7319089;19;129058;-39
2022/11/25 04:21:33;;;;;;;26.50;3.03;;;;;;;22.68;58.80;99407.09;7317198;19;129014;-36
2022/11/25 04:23:59;;;;;;;55.60;5.20;;;;;;;22.59;59.07;99408.03;7318468;19;129031;-38
2022/11/25 04:26:24;;;;;;;37.42;4.03;;;;;;;22.53;59.01;99414.69;7316004;19;129449;-36
2022/11/25 04:28:50;;;;;;;25.17;2.70;;;;;;;22.34;60.01;99403.50;7317145;19;129366;-36
2022/11/25 04:31:15;;;;;;;42.90;4.15;;;;;;;22.34;59.87;99419.22;7316761;19;129066;-39
2022/11/25 04:33:40;;;;;;;30.30;3.03;;;;;;;22.27;60.12;99423.38;7317663;19;129468;-36
2022/11/25 04:36:06;;;;;;;22.58;2.55;;;;;;;22.20;60.44;99422.31;7315784;19;131004;-38
2022/11/25 04:38:32;;;;;;;30.50;3.00;;;;;;;22.10;60.25;99426.81;7317428;19;129935;-36
2022/11/25 04:40:57;;;;;;;24.33;2.77;;;;;;;22.01;61.22;99422.44;7315846;19;129533;-35
2022/11/25 04:43:22;;;;;;;36.15;3.70;;;;;;;21.90;60.94;99421.69;7315792;19;130490;-36
2022/11/25 04:45:49;;;;;;;25.25;2.97;;;;;;;21.85;61.29;99425.69;7315982;19;129178;-36
2022/11/25 04:48:14;;;;;;;22.13;2.40;;;;;;;21.78;61.58;99428.06;7316969;19;128870;-37
2022/11/25 04:50:39;;;;;;;35.50;3.20;;;;;;;21.70;61.68;99422.69;7316449;19;129839;-38
2022/11/25 04:53:05;;;;;;;14.45;2.00;;;;;;;21.67;62.14;99424.78;7314598;19;129621;-37
2022/11/25 04:55:30;;;;;;;26.57;3.03;;;;;;;21.58;62.02;99425.66;7313127;19;130351;-38
2022/11/25 04:57:55;;;;;;;35.30;3.37;;;;;;;21.53;62.80;99422.66;7316596;19;129020;-37
2022/11/25 05:00:21;;;;;;;44.00;4.03;;;;;;;21.47;62.62;99424.03;7315653;19;129592;-38
2022/11/25 05:02:47;;;;;;;16.63;2.20;;;;;;;21.47;63.20;99418.78;7314952;19;129124;-39
2022/11/25 05:05:12;;;;;;;44.58;4.13;;;;;;;21.42;63.56;99426.25;7313070;19;129476;-36
2022/11/25 05:07:37;;;;;;;21.30;2.53;;;;;;;21.39;63.23;99421.31;7315571;19;129095;-36
2022/11/25 05:10:04;;;;;;;42.00;3.88;;;;;;;21.36;63.01;99421.59;7315735;19;129375;-37
2022/11/25 05:12:30;;;;;;;;;;;;;;;21.36;63.96;99432.06;7315609;19;130844;-37
2022/11/25 05:14:56;;;;;;;19.38;2.33;;;;;;;21.34;63.46;99422.69;7315203;19;129323;-37
2022/11/25 05:17:23;;;;;;;55.23;5.03;;;;;;;21.30;63.64;99416.94;7315094;19;129329;-38
2022/11/25 05:19:50;;;;;;;40.75;4.00;;;;;;;21.28;63.84;99416.25;7315110;19;128834;-38
2022/11/25 05:22:18;;;;;;;35.90;3.33;;;;;;;21.29;64.18;99415.28;7313015;19;129127;-37
2022/11/25 05:24:43;;;;;;;25.85;2.78;;;;;;;21.28;63.70;99412.81;7313978;19;129580;-38
2022/11/25 05:27:09;;;;;;;25.58;2.88;;;;;;;21.30;64.13;99416.13;7314547;19;129042;-37
2022/11/25 05:29:36;;;;;;;38.23;3.73;;;;;;;21.26;63.97;99410.34;7315458;19;129349;-38
2022/11/25 05:32:01;;;;;;;13.32;2.05;;;;;;;21.26;63.43;99407.72;7314017;19;129516;-33
2022/11/25 05:34:27;;;;;;;22.90;2.53;;;;;;;21.24;63.47;99407.03;7314444;19;130165;-37
2022/11/25 05:36:52;;;;;;;26.35;2.90;;;;;;;21.32;63.16;99415.00;7311394;19;129579;-35
2022/11/25 05:39:18;;;;;;;23.63;2.53;;;;;;;21.34;63.66;99407.84;7315548;19;129199;-38
2022/11/25 05:41:43;;;;;;;26.07;2.57;;;;;;;21.39;62.94;99410.84;7314784;19;130115;-39
2022/11/25 05:44:09;;;;;;;36.70;4.20;;;;;;;21.46;61.47;99405.88;7313889;19;129253;-38
2022/11/25 05:46:34;;;;;;;51.93;11.20;;;;;;;21.64;61.78;99410.22;7314410;19;129063;-37
2022/11/25 05:49:00;;;;;;;44.17;9.52;;;;;;;21.72;62.04;99415.53;7315528;19;129352;-39
2022/11/25 05:51:28;;;;;;;50.63;10.00;;;;;;;21.84;61.42;99417.03;7311007;19;130047;-34
2022/11/25 05:53:55;;;;;;;62.25;10.98;;;;;;;21.92;61.50;99422.34;7312492;19;130899;-39
2022/11/25 05:56:20;;;;;;;;;;;;;;;21.88;61.04;99401.88;7312814;19;129061;-35
2022/11/25 05:58:45;;;;;;;36.13;8.00;;;;;;;22.08;61.10;99419.09;7314546;19;129061;-37
2022/11/25 06:01:14;;;;;;;42.47;8.43;;;;;;;22.21;60.72;99419.59;7311533;19;130125;-38
2022/11/25 06:03:40;;;;;;;54.85;8.77;;;;;;;22.28;60.48;99425.06;7310944;19;130321;-37
2022/11/25 06:06:07;;;;;;;48.83;7.65;;;;;;;22.34;60.52;99424.44;7314037;19;129689;-38
2022/11/25 06:08:33;;;;;;;54.85;8.68;;;;;;;22.39;60.23;99424.81;7313834;19;129448;-37
2022/11/25 06:10:58;;;;;;;34.53;7.13;;;;;;;22.36;59.77;99419.88;7312551;19;130994;-38
2022/11/25 06:13:24;;;;;;;34.53;7.32;;;;;;;22.35;59.68;99426.91;7309659;19;130641;-37
2022/11/25 06:15:50;;;;;;;53.97;7.88;;;;;;;22.31;59.80;99430.00;7304652;19;130409;-38
2022/11/25 06:18:16;;;;;;;54.30;8.27;;;;;;;22.12;60.62;99419.63;7309340;19;129615;-36
2022/11/25 06:20:41;;;;;;;34.53;6.60;;;;;;;22.21;60.15;99430.06;7311330;19;129048;-38
2022/11/25 06:23:08;;;;;;;61.47;9.05;;;;;;;22.23;60.63;99443.00;7306425;19;129761;-38
2022/11/25 06:25:34;;;;;;;71.55;9.25;;;;;;;22.15;60.86;99435.88;7303999;19;133002;-37
2022/11/25 06:28:00;;;;;;;30.63;6.20;;;;;;;22.16;60.77;99439.31;7311332;19;129130;-35
2022/11/25 06:30:25;;;;;;;38.08;6.65;;;;;;;22.14;60.81;99436.00;7311920;19;130065;-35
2022/11/25 06:32:53;;;;;;;36.13;6.17;;;;;;;22.18;60.33;99446.03;7310919;19;129174;-38
2022/11/25 06:35:18;;;;;;;55.05;7.97;;;;;;;22.21;61.01;99442.31;7310262;19;129389;-38
2022/11/25 06:37:44;;;;;;;21.45;5.63;;;;;;;22.19;60.70;99445.09;7314569;19;128814;-38
2022/11/25 06:40:10;;;;;;;28.83;5.87;;;;;;;22.20;60.60;99458.97;7311051;19;129246;-38
2022/11/25 06:42:37;;;;;;;29.88;6.05;;;;;;;22.21;60.96;99450.19;7309794;19;130372;-38
2022/11/25 06:45:03;;;;;;;39.63;6.65;;;;;;;22.22;60.10;99457.03;7312182;19;128971;-37
2022/11/25 06:47:28;;;;;;;27.43;5.53;;;;;;;22.22;60.27;99462.28;7314364;19;128897;-36
2022/11/25 06:49:53;;;;;;;34.08;6.18;;;;;;;22.18;60.25;99469.59;7310349;19;129549;-37
2022/11/25 06:52:19;;;;;;;36.60;6.07;;;;;;;22.17;60.99;99467.13;7311277;19;129410;-36
2022/11/25 06:54:44;;;;;;;25.95;5.28;;;;;;;22.16;60.39;99462.88;7312574;19;129014;-39
2022/11/25 06:57:11;;;;;;;45.83;7.03;;;;;;;22.13;60.76;99463.97;7311324;19;130150;-36
2022/11/25 06:59:36;;;;;;;37.28;6.75;;;;;;;22.11;60.96;99472.97;7312349;19;130616;-37
2022/11/25 07:02:01;;;;;;;16.83;5.50;;;;;;;22.04;60.60;99469.28;7310542;19;129156;-37
2022/11/25 07:04:27;;;;;;;46.45;6.78;;;;;;;22.01;61.39;99469.56;7311301;19;129538;-38
2022/11/25 07:06:53;;;;;;;29.65;5.70;;;;;;;21.84;61.67;99463.31;7312250;19;129975;-35
2022/11/25 07:09:21;;;;;;;56.28;7.65;;;;;;;21.86;61.97;99480.53;7309315;19;130195;-37
2022/11/25 07:11:47;;;;;;;34.88;5.93;;;;;;;21.72;61.61;99457.41;7311316;19;130714;-38
2022/11/25 07:14:15;;;;;;;47.77;6.93;;;;;;;21.80;61.68;99485.50;7310734;19;131898;-38
2022/11/25 07:16:43;;;;;;;46.15;6.78;;;;;;;21.71;62.17;99484.53;7311264;19;129078;-36
2022/11/25 07:19:10;;;;;;;38.55;6.22;;;;;;;21.71;61.70;99492.41;7310209;19;130173;-37
2022/11/25 07:21:35;;;;;;;32.92;5.55;;;;;;;21.70;62.03;99488.13;7311289;19;129420;-39
2022/11/25 07:24:03;;;;;;;94.30;10.13;;;;;;;21.69;62.21;99496.94;7310004;19;129238;-35
2022/11/25 07:26:31;;;;;;;19.98;5.10;;;;;;;21.70;62.25;99495.16;7313050;19;129107;-37
2022/11/25 07:28:58;;;;;;;26.15;5.50;;;;;;;21.64;62.07;99496.53;7319417;19;129415;-36
2022/11/25 07:31:27;;;;;;;33.75;5.93;;;;;;;21.64;62.21;99498.31;7316277;19;129762;-36
2022/11/25 07:33:55;;;;;;;63.78;7.78;;;;;;;21.61;62.87;99499.44;7319416;19;129288;-38
2022/11/25 07:36:21;;;;;;;31.48;5.43;;;;;;;21.59;62.65;99506.59;7317625;19;129201;-36
2022/11/25 07:38:47;;;;;;;11.57;4.00;;;;;;;21.60;62.13;99508.25;7317865;19;129343;-38
2022/11/25 07:41:16;;;;;;;20.57;4.57;;;;;;;21.56;62.28;99501.66;7318295;19;129261;-36
2022/11/25 07:43:46;;;;;;;43.25;5.75;;;;;;;21.46;62.99;99490.41;7318247;19;129371;-37
2022/11/25 07:46:14;;;;;;;25.38;5.22;;;;;;;21.56;62.98;99506.91;7317406;19;128984;-38
2022/11/25 07:48:41;;;;;;;36.53;5.13;;;;;;;21.55;63.03;99510.47;7315326;19;129824;-37
2022/11/25 07:51:24;;;;;;;19.15;4.38;;;;;;;21.49;63.10;99505.81;7318440;19;129179;-38
2022/11/25 07:53:52;;;;;;;52.47;6.43;;;;;;;21.38;63.01;99492.91;7316911;19;129311;-37
2022/11/25 07:56:17;;;;;;;38.35;5.35;;;;;;;21.44;63.40;99502.78;7316109;19;129387;-37
2022/11/25 07:58:44;;;;;;;22.30;4.72;;;;;;;21.33;62.84;99495.09;7316507;19;129621;-38
2022/11/25 08:01:11;;;;;;;23.40;4.22;;;;;;;21.47;63.15;99505.13;7316245;19;130496;-39
2022/11/25 08:03:39;;;;;;;42.35;5.68;;;;;;;21.31;62.74;99483.97;7317715;19;129216;-37
2022/11/25 08:06:08;;;;;;;61.33;6.88;;;;;;;21.43;63.42;99506.38;7316194;19;131085;-39
2022/11/25 08:08:35;;;;;;;23.73;4.28;;;;;;;21.37;63.16;99496.47;7318749;19;131343;-37
2022/11/25 08:11:04;;;;;;;33.90;4.88;;;;;;;21.51;62.99;99513.50;7316071;19;129587;-36
2022/11/25 08:13:31;;;;;;;30.20;4.90;;;;;;;21.47;62.66;99507.72;7314388;19;129225;-38
2022/11/25 08:15:58;;;;;;;41.33;5.75;;;;;;;21.52;62.60;99509.91;7316193;19;129137;-37
2022/11/25 08:18:23;;;;;;;;;;;;;;;21.47;63.04;99512.97;7314077;19;130803;-36
2022/11/25 08:20:48;;;;;;;24.37;4.57;;;;;;;21.39;63.03;99497.16;7316587;19;129696;-37
2022/11/25 08:23:13;;;;;;;26.83;4.37;;;;;;;21.51;63.28;99509.09;7314318;19;129454;-35
2022/11/25 08:25:40;;;;;;;37.57;5.10;;;;;;;21.51;63.05;99514.34;7316007;19;129266;-37
2022/11/25 08:28:06;;;;;;;29.77;4.80;;;;;;;21.41;62.70;99503.06;7316712;19;129042;-36
2022/11/25 08:30:31;;;;;;;28.33;4.82;;;;;;;21.45;62.74;99514.06;7317851;19;130030;-38
2022/11/25 08:32:57;;;;;;;25.90;4.75;;;;;;;21.43;62.91;99516.84;7315255;19;129437;-37
2022/11/25 08:35:23;;;;;;;42.17;5.70;;;;;;;21.42;63.02;99517.78;7315891;19;129293;-37
2022/11/25 08:37:48;;;;;;;38.40;5.40;;;;;;;21.41;63.56;99523.16;7315964;19;130645;-38
2022/11/25 08:40:14;;;;;;;25.67;4.38;;;;;;;21.39;63.08;99510.22;7315325;19;130849;-35
2022/11/25 08:42:39;;;;;;;25.10;4.63;;;;;;;21.41;62.86;99512.69;7315442;19;128912;-38
2022/11/25 08:45:05;;;;;;;35.88;4.97;;;;;;;21.41;63.42;99513.53;7316398;19;129438;-35
2022/11/25 08:47:31;;;;;;;26.35;4.38;;;;;;;21.43;63.14;99510.78;7317753;19;130283;-39
2022/11/25 08:49:57;;;;;;;19.67;3.97;;;;;;;21.49;63.02;99516.25;7317255;19;131303;-37
2022/11/25 08:52:22;;;;;;;32.38;4.63;;;;;;;21.48;63.14;99513.78;7314590;19;129526;-35
2022/11/25 08:54:48;;;;;;;36.80;4.90;;;;;;;21.50;62.66;99517.09;7315075;19;130217;-37
2022/11/25 08:57:14;;;;;;;22.77;4.10;;;;;;;21.54;62.98;99523.69;7312807;19;129556;-36
2022/11/25 08:59:39;;;;;;;23.73;3.90;;;;;;;21.53;62.67;99520.25;7316525;19;130068;-37
2022/11/25 09:02:07;;;;;;;13.10;3.22;;;;;;;21.52;62.56;99515.97;7312809;19;129247;-38
2022/11/25 09:04:32;;;;;;;33.03;5.03;;;;;;;21.51;62.96;99519.56;7316752;19;129236;-38
2022/11/25 09:06:58;;;;;;;24.83;4.10;;;;;;;21.53;63.14;99519.44;7317667;19;129207;-37
2022/11/25 09:09:24;;;;;;;43.67;5.67;;;;;;;21.50;63.14;99524.94;7313202;19;129242;-36
2022/11/25 09:11:49;;;;;;;31.55;4.40;;;;;;;21.46;63.05;99520.94;7314145;19;130477;-39
2022/11/25 09:14:14;;;;;;;32.00;4.35;;;;;;;21.46;63.05;99521.78;7316350;19;129208;-38
2022/11/25 09:16:40;;;;;;;30.55;4.40;;;;;;;21.44;63.24;99521.09;7311947;19;129032;-39
2022/11/25 09:19:05;;;;;;;13.20;3.15;;;;;;;21.46;63.33;99521.78;7314106;19;129453;-35
2022/11/25 09:21:31;;;;;;;34.90;4.40;;;;;;;21.45;62.84;99520.13;7313818;19;129168;-35
2022/11/25 09:23:56;;;;;;;53.63;6.27;;;;;;;21.48;63.19;99519.84;7311862;19;129315;-40
2022/11/25 09:26:24;;;;;;;39.10;5.13;;;;;;;21.48;63.24;99519.84;7314130;19;129273;-34
2022/11/25 09:28:50;;;;;;;23.73;3.88;;;;;;;21.48;62.96;99517.25;7315445;19;129564;-35
2022/11/25 09:31:17;;;;;;;56.63;6.03;;;;;;;21.52;62.94;99518.59;7315254;19;129318;-33
2022/11/25 09:33:43;;;;;;;45.65;5.68;;;;;;;21.59;62.65;99514.47;7314425;19;128881;-39
2022/11/25 09:36:10;;;;;;;26.05;3.88;;;;;;;21.59;62.73;99517.06;7313149;19;130239;-40
2022/11/25 09:38:35;;;;;;;;;;;;;;;21.59;62.85;99518.84;7314999;19;129257;-36
2022/11/25 09:41:10;;;;;;;54.53;5.75;;;;;;;21.59;62.72;99527.53;7312355;19;129227;-40
2022/11/25 09:47:05;;;;;;;36.78;4.32;;;;;;;21.57;62.46;99519.00;7310153;19;129605;-34
2022/11/25 09:49:36;;;;;;;32.42;4.03;;;;;;;21.60;62.94;99520.53;7311877;19;130386;-35
2022/11/25 09:52:08;;;;;;;37.13;4.72;;;;;;;21.54;63.09;99518.44;7313955;19;129311;-33
2022/11/25 09:54:52;;;;;;;35.17;4.43;;;;;;;21.54;62.56;99521.06;7310495;19;129209;-37
2022/11/25 09:57:30;;;;;;;23.48;3.85;;;;;;;21.51;62.99;99524.81;7312166;19;129640;-35
2022/11/25 10:00:24;;;;;;;24.80;3.88;;;;;;;21.53;63.19;99525.50;7308778;19;129321;-35
2022/11/25 10:02:55;;;;;;;6.10;2.70;;;;;;;21.50;62.68;99517.91;7313030;19;128973;-34
2022/11/25 10:05:30;;;;;;;43.88;5.30;;;;;;;21.48;62.91;99525.09;7311390;19;130340;-33
2022/11/25 10:08:02;;;;;;;50.22;5.88;;;;;;;21.40;62.72;99506.63;7312163;19;130551;-31
2022/11/25 10:10:40;;;;;;;38.50;4.53;;;;;;;21.52;63.02;99523.81;7311622;19;129055;-33
2022/11/25 10:13:27;;;;;;;93.07;9.25;;;;;;;21.59;63.00;99527.53;7311684;19;130454;-33
2022/11/25 10:15:56;;;;;;;39.47;4.30;;;;;;;21.54;62.63;99514.06;7310754;19;129760;-37
2022/11/25 10:18:44;;;;;;;34.80;4.55;;;;;;;21.49;62.87;99500.56;7314364;19;130103;-34
2022/11/25 10:21:10;;;;;;;24.63;3.53;;;;;;;21.63;62.64;99515.84;7311156;19;130853;-36
2022/11/25 10:23:38;;;;;;;26.13;4.00;;;;;;;21.59;63.03;99519.69;7315092;19;128938;-35
2022/11/25 10:26:13;;;;;;;22.27;3.85;;;;;;;21.55;63.08;99518.31;7310592;19;129344;-34
2022/11/25 10:28:43;;;;;;;33.08;4.30;;;;;;;21.55;63.21;99517.50;7313563;19;130068;-38
2022/11/25 10:31:41;;;;;;;45.45;4.90;;;;;;;21.52;62.93;99521.22;7312015;19;130254;-34
2022/11/25 10:34:29;;;;;;;;;;;;;;;21.39;62.98;99512.84;7309166;19;129143;-38
2022/11/25 10:36:59;;;;;;;53.30;5.68;;;;;;;21.51;63.09;99523.97;7306615;19;130888;-36
2022/11/25 10:39:30;;;;;;;38.92;4.78;;;;;;;21.47;62.90;99515.56;7313375;19;129068;-37
2022/11/25 10:41:58;;;;;;;16.58;3.22;;;;;;;21.51;62.94;99519.56;7313178;19;130593;-35
2022/11/25 10:44:29;;;;;;;38.60;4.72;;;;;;;21.37;62.93;99496.47;7308706;19;130249;-39
2022/11/25 10:47:04;;;;;;;33.92;4.25;;;;;;;21.50;62.70;99517.09;7312511;19;129557;-34
2022/11/25 10:49:42;;;;;;;74.00;7.32;;;;;;;21.50;63.36;99522.34;7311957;19;130017;-36
2022/11/25 10:52:12;;;;;;;35.88;3.85;;;;;;;21.54;63.23;99514.06;7309073;19;131230;-38
2022/11/25 10:54:38;;;;;;;35.65;4.28;;;;;;;21.55;63.12;99510.47;7313294;19;129290;-34
2022/11/25 10:57:17;;;;;;;29.27;4.00;;;;;;;21.56;62.94;99511.28;7306200;19;129321;-37
2022/11/25 10:59:54;;;;;;;41.45;4.38;;;;;;;21.55;63.12;99510.47;7312758;19;129089;-34
2022/11/25 11:02:30;;;;;;;48.33;5.03;;;;;;;21.54;62.62;99511.44;7304398;19;130461;-37
2022/11/25 11:05:07;;;;;;;38.15;4.03;;;;;;;21.51;62.97;99506.50;7312850;19;129286;-35
2022/11/25 11:07:35;;;;;;;21.67;3.28;;;;;;;21.57;62.60;99513.75;7310123;19;128875;-33
2022/11/25 11:10:25;;;;;;;32.78;3.95;;;;;;;21.48;62.73;99503.34;7311342;19;129738;-39
2022/11/25 11:12:57;;;;;;;29.67;3.72;;;;;;;21.48;63.22;99503.34;7310377;19;129783;-39
2022/11/25 11:15:38;;;;;;;23.27;3.38;;;;;;;21.45;63.05;99504.41;7312919;19;128913;-35
2022/11/25 11:18:36;;;;;;;18.40;3.13;;;;;;;21.41;63.32;99503.06;7312830;19;129578;-34
2022/11/25 11:21:02;;;;;;;26.52;3.60;;;;;;;21.42;63.01;99499.47;7308876;19;129479;-37
2022/11/25 11:23:28;;;;;;;46.37;4.83;;;;;;;21.39;62.95;99491.91;7309751;19;130637;-35
2022/11/25 11:26:03;;;;;;;76.00;7.50;;;;;;;21.43;63.25;99495.09;7309275;19;130053;-40
2022/11/25 11:28:35;;;;;;;35.65;4.05;;;;;;;21.44;63.45;99492.31;7310496;19;129943;-34
2022/11/25 11:31:06;;;;;;;33.92;3.85;;;;;;;21.51;63.53;99488.19;7310616;19;130310;-41
2022/11/25 11:33:49;;;;;;;34.80;3.95;;;;;;;21.53;62.83;99483.63;7308220;19;130239;-38